Time;durP1;ratioP1;P1;durP2;ratioP2;P2;SDS_P1;SDS_P2;PMS_P1;PMS_P2;Temp;Humidity;BMP_temperature;BMP_pressure;BME280_temperature;BME280_humidity;BME280_pressure;Samples;Min_cycle;Max_cycle;Signal;HPM_P1;HPM_P2
2022/10/20 00:00:42;;;;;;;11.35;6.40;;;7.60;99.90;;;;;;4949396;28;20121;-57
2022/10/20 00:03:08;;;;;;;12.15;6.85;;;7.60;99.90;;;;;;4964584;28;20062;-57
2022/10/20 00:05:33;;;;;;;9.02;6.50;;;7.70;99.90;;;;;;4949023;28;20133;-57
2022/10/20 00:07:59;;;;;;;9.98;6.63;;;7.60;99.90;;;;;;4966990;28;20117;-57
2022/10/20 00:10:24;;;;;;;10.52;6.80;;;7.60;99.90;;;;;;4966588;28;20053;-57
2022/10/20 00:12:50;;;;;;;11.70;6.40;;;7.40;99.90;;;;;;4965650;28;20038;-57
2022/10/20 00:15:16;;;;;;;8.40;6.70;;;7.60;99.90;;;;;;4966547;28;20038;-56
2022/10/20 00:17:43;;;;;;;9.43;6.05;;;7.50;99.90;;;;;;4967040;28;20058;-56
2022/10/20 00:20:09;;;;;;;12.63;7.07;;;7.60;99.90;;;;;;4966236;28;20051;-57
2022/10/20 00:22:35;;;;;;;10.70;6.40;;;7.40;99.90;;;;;;4966517;28;20047;-57
2022/10/20 00:25:00;;;;;;;10.07;6.50;;;7.60;99.90;;;;;;4967237;28;20057;-62
2022/10/20 00:27:26;;;;;;;9.10;6.25;;;7.50;99.90;;;;;;4965693;28;20042;-57
2022/10/20 00:29:52;;;;;;;8.60;5.75;;;7.40;99.90;;;;;;4965810;28;20081;-57
2022/10/20 00:32:18;;;;;;;14.88;6.70;;;7.50;99.90;;;;;;4949022;28;20134;-57
2022/10/20 00:34:44;;;;;;;9.85;5.90;;;7.40;99.90;;;;;;4966281;28;20620;-61
2022/10/20 00:37:10;;;;;;;9.90;5.90;;;7.50;99.90;;;;;;4966128;28;20050;-57
2022/10/20 00:39:35;;;;;;;12.07;6.10;;;7.50;99.90;;;;;;4965972;28;20112;-57
2022/10/20 00:42:02;;;;;;;11.68;6.47;;;7.60;99.90;;;;;;4947738;28;20128;-57
2022/10/20 00:44:51;;;;;;;11.10;6.10;;;7.60;99.90;;;;;;4965451;28;20046;-57
2022/10/20 00:47:25;;;;;;;11.20;6.13;;;7.60;99.90;;;;;;4965850;28;20054;-56
2022/10/20 00:49:51;;;;;;;10.77;6.47;;;7.50;99.90;;;;;;4965737;28;20054;-57
2022/10/20 00:52:20;;;;;;;8.90;5.47;;;7.60;99.90;;;;;;4964723;28;20089;-57
2022/10/20 00:54:47;;;;;;;11.40;6.03;;;7.70;99.90;;;;;;4965744;28;20486;-57
2022/10/20 00:57:13;;;;;;;10.93;5.88;;;7.70;99.90;;;;;;4947248;28;20047;-57
2022/10/20 00:59:39;;;;;;;11.15;6.10;;;7.50;99.90;;;;;;4965098;28;20126;-57
2022/10/20 01:02:08;;;;;;;13.10;5.57;;;7.60;99.90;;;;;;4964146;28;20121;-57
2022/10/20 01:04:35;;;;;;;8.10;6.03;;;7.60;99.90;;;;;;4964287;28;22923;-56
2022/10/20 01:07:01;;;;;;;11.20;5.88;;;7.50;99.90;;;;;;4964840;28;20067;-56
2022/10/20 01:09:27;;;;;;;12.23;5.25;;;7.40;99.90;;;;;;4946815;28;20145;-57
2022/10/20 01:12:27;;;;;;;12.15;5.68;;;7.40;99.90;;;;;;4963954;28;20073;-56
2022/10/20 01:15:13;;;;;;;10.57;5.90;;;7.50;99.90;;;;;;4946225;28;20047;-56
2022/10/20 01:18:16;;;;;;;13.68;6.20;;;7.50;99.90;;;;;;4965023;28;20151;-57
2022/10/20 01:21:18;;;;;;;10.77;5.55;;;7.40;99.90;;;;;;4964551;28;20062;-56
2022/10/20 01:24:11;;;;;;;14.30;6.20;;;7.30;99.90;;;;;;4948047;28;20065;-56
2022/10/20 01:27:09;;;;;;;9.40;5.60;;;7.30;99.90;;;;;;4946946;28;20054;-56
2022/10/20 01:29:55;;;;;;;13.52;6.47;;;7.30;99.90;;;;;;4961479;28;20055;-57
2022/10/20 01:32:23;;;;;;;8.82;5.97;;;7.20;99.90;;;;;;4965107;28;20050;-56
2022/10/20 01:35:13;;;;;;;9.55;5.90;;;7.30;99.90;;;;;;4965514;28;20553;-57
2022/10/20 01:38:06;;;;;;;8.52;5.88;;;7.10;99.90;;;;;;4965016;28;20391;-59
2022/10/20 01:40:50;;;;;;;11.77;5.75;;;7.20;99.90;;;;;;4964634;28;20043;-58
2022/10/20 01:43:19;;;;;;;8.10;5.82;;;7.20;99.90;;;;;;4964456;28;20098;-56
2022/10/20 01:45:48;;;;;;;11.63;6.07;;;7.20;99.90;;;;;;4964033;28;20047;-56
2022/10/20 01:48:17;;;;;;;9.93;5.97;;;7.20;99.90;;;;;;4964627;28;20047;-57
2022/10/20 01:50:45;;;;;;;9.88;6.22;;;7.20;99.90;;;;;;4964974;28;20050;-57
2022/10/20 01:53:12;;;;;;;10.32;5.88;;;7.20;99.90;;;;;;4963966;28;20521;-57
2022/10/20 01:55:39;;;;;;;9.02;6.03;;;7.10;99.90;;;;;;4964880;28;20753;-56
2022/10/20 01:58:13;;;;;;;10.75;5.60;;;7.20;99.90;;;;;;4964685;28;20046;-57
2022/10/20 02:00:40;;;;;;;9.32;5.85;;;7.10;99.90;;;;;;4964276;28;20129;-57
2022/10/20 02:03:24;;;;;;;10.80;6.30;;;7.00;99.90;;;;;;4964473;28;20047;-56
2022/10/20 02:06:12;;;;;;;9.20;5.75;;;7.00;99.90;;;;;;4964009;28;20109;-57
2022/10/20 02:08:51;;;;;;;9.73;5.93;;;7.00;99.90;;;;;;4964540;28;20051;-55
2022/10/20 02:11:37;;;;;;;8.00;6.10;;;7.00;99.90;;;;;;4963170;28;20042;-56
2022/10/20 02:14:04;;;;;;;10.18;6.10;;;7.00;99.90;;;;;;4963948;28;20493;-57
2022/10/20 02:16:39;;;;;;;9.80;6.43;;;6.90;99.90;;;;;;4964590;28;20090;-57
2022/10/20 02:19:07;;;;;;;10.80;6.10;;;6.90;99.90;;;;;;4964325;28;20085;-55
2022/10/20 02:21:33;;;;;;;9.05;6.50;;;6.90;99.90;;;;;;5001952;23;20142;-57
2022/10/20 02:24:03;;;;;;;12.02;6.13;;;7.00;99.90;;;;;;4944177;28;20130;-57
2022/10/20 02:26:31;;;;;;;11.40;6.50;;;7.20;99.90;;;;;;4942345;28;20051;-57
2022/10/20 02:29:01;;;;;;;8.88;6.30;;;7.00;99.90;;;;;;4944638;29;20603;-57
2022/10/20 02:31:27;;;;;;;10.80;6.22;;;6.90;99.90;;;;;;4944956;29;20437;-56
2022/10/20 02:33:55;;;;;;;9.80;6.50;;;6.80;99.90;;;;;;4944299;29;20047;-56
2022/10/20 02:36:25;;;;;;;9.30;6.50;;;6.90;99.90;;;;;;4943977;29;20138;-56
2022/10/20 02:38:51;;;;;;;13.98;6.85;;;6.80;99.90;;;;;;4944108;29;20132;-56
2022/10/20 02:41:16;;;;;;;13.02;6.97;;;6.70;99.90;;;;;;4942859;29;20051;-57
2022/10/20 02:43:42;;;;;;;11.38;6.80;;;6.90;99.90;;;;;;4944677;29;20059;-57
2022/10/20 02:46:08;;;;;;;13.38;6.90;;;6.80;99.90;;;;;;4944179;29;20045;-56
2022/10/20 02:48:34;;;;;;;10.50;7.43;;;6.70;99.90;;;;;;4944387;29;20051;-57
2022/10/20 02:50:59;;;;;;;10.60;6.57;;;6.80;99.90;;;;;;4943896;29;20086;-56
2022/10/20 02:53:25;;;;;;;10.52;7.18;;;6.80;99.90;;;;;;4926528;29;20090;-57
2022/10/20 02:55:51;;;;;;;13.63;7.82;;;6.80;99.90;;;;;;4943793;29;20506;-57
2022/10/20 02:58:16;;;;;;;10.65;7.00;;;6.80;99.90;;;;;;4943308;29;20089;-56
2022/10/20 03:00:42;;;;;;;10.82;7.00;;;6.70;99.90;;;;;;4944082;29;20130;-56
2022/10/20 03:03:07;;;;;;;11.13;7.28;;;6.70;99.90;;;;;;4944080;29;20044;-57
2022/10/20 03:05:38;;;;;;;10.98;7.10;;;6.70;99.90;;;;;;4926784;29;20047;-58
2022/10/20 03:08:04;;;;;;;12.82;7.55;;;6.70;99.90;;;;;;4943517;29;20127;-56
2022/10/20 03:10:29;;;;;;;11.07;8.45;;;6.70;99.90;;;;;;4943842;29;20047;-56
2022/10/20 03:12:55;;;;;;;10.35;7.53;;;6.90;99.90;;;;;;4943209;29;20036;-57
2022/10/20 03:15:20;;;;;;;15.13;8.05;;;6.70;99.90;;;;;;4926357;29;20040;-57
2022/10/20 03:17:46;;;;;;;11.63;7.38;;;6.80;99.90;;;;;;4942899;29;20049;-56
2022/10/20 03:20:12;;;;;;;13.63;8.50;;;6.80;99.90;;;;;;4943877;29;20074;-56
2022/10/20 03:22:37;;;;;;;12.25;8.10;;;6.80;99.90;;;;;;4944317;29;20393;-57
2022/10/20 03:25:03;;;;;;;11.25;8.30;;;6.80;99.90;;;;;;4942936;29;20127;-56
2022/10/20 03:27:29;;;;;;;14.10;8.70;;;6.60;99.90;;;;;;4942936;29;20062;-56
2022/10/20 03:29:54;;;;;;;11.90;8.68;;;6.70;99.90;;;;;;4944348;29;20058;-57
2022/10/20 03:32:20;;;;;;;12.20;8.38;;;6.80;99.90;;;;;;4944394;29;20043;-57
2022/10/20 03:34:46;;;;;;;11.18;8.40;;;6.70;99.90;;;;;;4944631;29;20051;-57
2022/10/20 03:37:11;;;;;;;12.80;8.77;;;6.50;99.90;;;;;;4945701;28;20039;-57
2022/10/20 03:39:37;;;;;;;12.30;8.30;;;6.50;99.90;;;;;;4948393;29;20102;-57
2022/10/20 03:42:03;;;;;;;14.55;9.18;;;6.60;99.90;;;;;;4947945;29;20097;-56
2022/10/20 03:44:28;;;;;;;12.30;8.82;;;6.60;99.90;;;;;;4947590;29;20675;-57
2022/10/20 03:46:54;;;;;;;12.68;9.23;;;6.60;99.90;;;;;;4947780;29;20055;-57
2022/10/20 03:49:19;;;;;;;12.65;8.80;;;6.50;99.90;;;;;;4946950;29;20434;-56
2022/10/20 03:51:45;;;;;;;10.85;9.13;;;6.50;99.90;;;;;;4946497;29;20054;-56
2022/10/20 03:54:11;;;;;;;16.17;9.85;;;6.30;99.90;;;;;;4946756;29;20046;-56
2022/10/20 03:56:36;;;;;;;12.55;8.98;;;6.50;99.90;;;;;;4947185;29;20584;-56
2022/10/20 03:59:02;;;;;;;10.77;9.02;;;6.40;99.90;;;;;;4930118;29;20078;-56
2022/10/20 04:01:30;;;;;;;11.60;9.40;;;6.60;99.90;;;;;;4946698;29;20050;-57
2022/10/20 04:03:56;;;;;;;15.25;9.68;;;6.40;99.90;;;;;;4947144;29;20058;-56
2022/10/20 04:06:22;;;;;;;11.57;9.38;;;6.40;99.90;;;;;;4946522;29;20502;-56
2022/10/20 04:08:47;;;;;;;13.20;9.77;;;6.40;99.90;;;;;;4947938;29;20046;-57
2022/10/20 04:11:13;;;;;;;12.27;9.80;;;6.50;99.90;;;;;;4946017;29;20043;-57
2022/10/20 04:13:39;;;;;;;14.60;9.43;;;6.50;99.90;;;;;;4947127;29;20083;-56
2022/10/20 04:16:05;;;;;;;13.40;10.27;;;6.40;99.90;;;;;;4947140;29;20086;-56
2022/10/20 04:18:31;;;;;;;15.05;10.13;;;6.40;99.90;;;;;;4947082;29;20051;-57
2022/10/20 04:20:56;;;;;;;12.75;10.10;;;6.50;99.90;;;;;;4946837;29;20039;-57
2022/10/20 04:23:22;;;;;;;15.20;10.02;;;6.50;99.90;;;;;;4946660;29;20518;-57
2022/10/20 04:25:48;;;;;;;16.00;10.68;;;6.50;99.90;;;;;;4946528;29;20517;-57
2022/10/20 04:28:16;;;;;;;16.67;10.70;;;6.70;99.90;;;;;;4945416;29;20043;-57
2022/10/20 04:30:42;;;;;;;14.93;10.93;;;6.40;99.90;;;;;;4945956;29;20062;-57
2022/10/20 04:33:08;;;;;;;15.77;10.25;;;6.50;99.90;;;;;;4945723;29;20388;-57
2022/10/20 04:35:34;;;;;;;19.25;11.13;;;6.30;99.90;;;;;;4945712;29;20418;-57
2022/10/20 04:38:00;;;;;;;14.48;10.82;;;6.40;99.90;;;;;;4946322;29;20046;-57
2022/10/20 04:40:25;;;;;;;20.42;11.90;;;6.30;99.90;;;;;;4946436;29;20134;-57
2022/10/20 04:42:51;;;;;;;14.90;11.45;;;6.40;99.90;;;;;;4945458;29;20171;-57
2022/10/20 04:45:17;;;;;;;13.70;11.30;;;6.40;99.90;;;;;;4945093;29;20058;-57
2022/10/20 04:47:42;;;;;;;16.83;11.20;;;6.40;99.90;;;;;;4946603;28;20126;-56
2022/10/20 04:50:09;;;;;;;14.57;11.43;;;6.40;99.90;;;;;;4945607;29;20143;-58
2022/10/20 04:52:34;;;;;;;16.77;11.60;;;6.30;99.90;;;;;;4946537;29;20054;-57
2022/10/20 04:55:00;;;;;;;15.23;10.70;;;6.30;99.90;;;;;;4947142;29;20036;-57
2022/10/20 04:57:26;;;;;;;16.05;12.50;;;6.40;99.90;;;;;;4945736;29;20055;-57
2022/10/20 04:59:52;;;;;;;13.60;11.65;;;6.40;99.90;;;;;;4946663;29;20124;-57
2022/10/20 05:02:18;;;;;;;14.55;11.95;;;6.40;99.90;;;;;;4945151;29;20543;-57
2022/10/20 05:04:43;;;;;;;18.52;11.98;;;6.40;99.90;;;;;;4928433;29;20051;-57
2022/10/20 05:07:09;;;;;;;14.25;12.55;;;6.30;99.90;;;;;;4946086;29;20047;-54
2022/10/20 05:09:35;;;;;;;15.35;11.88;;;6.30;99.90;;;;;;4946553;29;20051;-58
2022/10/20 05:12:00;;;;;;;15.82;12.15;;;6.20;99.90;;;;;;4945578;29;20048;-58
2022/10/20 05:14:26;;;;;;;16.02;11.77;;;6.30;99.90;;;;;;4945209;29;20057;-56
2022/10/20 05:16:52;;;;;;;16.85;12.20;;;6.30;99.90;;;;;;4946324;29;20127;-57
2022/10/20 05:19:18;;;;;;;15.20;11.90;;;6.30;99.90;;;;;;4945892;29;20131;-57
2022/10/20 05:21:44;;;;;;;13.65;12.07;;;6.30;99.90;;;;;;4928557;29;20060;-57
2022/10/20 05:24:12;;;;;;;16.45;12.63;;;6.30;99.90;;;;;;4944999;29;20051;-56
2022/10/20 05:26:38;;;;;;;16.05;12.93;;;6.30;99.90;;;;;;4945080;29;20049;-57
2022/10/20 05:29:08;;;;;;;15.20;12.18;;;6.30;99.90;;;;;;4945110;29;20043;-57
2022/10/20 05:31:39;;;;;;;14.68;12.40;;;6.20;99.90;;;;;;4945915;29;20103;-57
2022/10/20 05:34:06;;;;;;;14.75;12.90;;;6.30;99.90;;;;;;4945387;29;20043;-58
2022/10/20 05:36:31;;;;;;;15.02;12.77;;;6.40;99.90;;;;;;4945044;29;20126;-56
2022/10/20 05:38:57;;;;;;;19.40;13.75;;;6.20;99.90;;;;;;4946001;29;20118;-57
2022/10/20 05:41:25;;;;;;;17.10;13.80;;;6.10;99.90;;;;;;4927982;29;20051;-57
2022/10/20 05:43:56;;;;;;;18.48;13.32;;;6.10;99.90;;;;;;4946243;29;20078;-57
2022/10/20 05:46:22;;;;;;;17.65;13.18;;;6.40;99.90;;;;;;4945568;29;20708;-56
2022/10/20 05:48:51;;;;;;;16.77;13.70;;;6.10;99.90;;;;;;4945546;29;20051;-57
2022/10/20 05:51:19;;;;;;;18.92;13.25;;;6.30;99.90;;;;;;4944871;29;20142;-56
2022/10/20 05:53:48;;;;;;;18.83;13.80;;;6.20;99.90;;;;;;4944795;29;20058;-56
2022/10/20 05:56:19;;;;;;;18.73;13.73;;;6.20;99.90;;;;;;4944253;29;20380;-57
2022/10/20 05:58:46;;;;;;;20.33;14.88;;;6.10;99.90;;;;;;4946054;29;20043;-54
2022/10/20 06:01:19;;;;;;;16.45;14.18;;;6.20;99.90;;;;;;4944164;28;20383;-56
2022/10/20 06:03:48;;;;;;;17.88;13.70;;;6.10;99.90;;;;;;4927957;29;20051;-58
2022/10/20 06:06:15;;;;;;;17.85;13.98;;;6.40;99.90;;;;;;4944922;29;20043;-58
2022/10/20 06:08:41;;;;;;;16.45;13.95;;;6.10;99.90;;;;;;4945067;29;20130;-56
2022/10/20 06:11:09;;;;;;;18.08;14.60;;;6.20;99.90;;;;;;4943856;29;20675;-57
2022/10/20 06:13:35;;;;;;;18.83;14.20;;;6.20;99.90;;;;;;4945615;29;20800;-57
2022/10/20 06:16:08;;;;;;;18.73;14.27;;;6.10;99.90;;;;;;4945569;29;20036;-58
2022/10/20 06:18:37;;;;;;;25.10;14.73;;;6.10;99.90;;;;;;4945304;29;20051;-57
2022/10/20 06:21:06;;;;;;;18.13;13.73;;;6.20;99.90;;;;;;4945432;29;20047;-57
2022/10/20 06:23:33;;;;;;;17.17;14.55;;;6.20;99.90;;;;;;4944917;29;20524;-56
2022/10/20 06:26:08;;;;;;;19.05;14.38;;;6.10;99.90;;;;;;4943978;29;20086;-57
2022/10/20 06:28:35;;;;;;;18.88;14.60;;;6.10;99.90;;;;;;4945551;29;20134;-57
2022/10/20 06:31:19;;;;;;;18.42;14.82;;;6.30;99.90;;;;;;4944033;29;20502;-57
2022/10/20 06:33:45;;;;;;;17.65;13.80;;;6.20;99.90;;;;;;4945271;29;20644;-57
2022/10/20 06:36:11;;;;;;;20.08;14.55;;;6.20;99.90;;;;;;4945201;29;20043;-57
2022/10/20 06:38:38;;;;;;;16.67;13.27;;;6.20;99.90;;;;;;4943979;29;20039;-57
2022/10/20 06:41:10;;;;;;;19.33;14.25;;;6.30;99.90;;;;;;4943923;29;20122;-57
2022/10/20 06:43:36;;;;;;;18.48;14.20;;;6.20;99.90;;;;;;4945074;29;20055;-58
2022/10/20 06:46:07;;;;;;;17.75;14.52;;;6.20;99.90;;;;;;4943641;29;20542;-57
2022/10/20 06:48:33;;;;;;;17.92;14.40;;;6.30;99.90;;;;;;4944758;29;20135;-57
2022/10/20 06:51:02;;;;;;;18.58;14.73;;;6.50;99.90;;;;;;4944491;29;20046;-57
2022/10/20 06:53:28;;;;;;;21.27;14.90;;;6.30;99.90;;;;;;4943397;29;20046;-57
2022/10/20 06:55:59;;;;;;;16.95;13.57;;;6.40;99.90;;;;;;4944326;29;20061;-58
2022/10/20 06:58:25;;;;;;;18.70;14.10;;;6.50;99.90;;;;;;4943927;29;20517;-57
2022/10/20 07:01:06;;;;;;;17.52;13.45;;;6.60;99.90;;;;;;4944340;29;20525;-56
2022/10/20 07:03:34;;;;;;;18.80;13.45;;;6.60;99.90;;;;;;4945003;29;20626;-57
2022/10/20 07:05:59;;;;;;;18.33;13.32;;;6.50;99.90;;;;;;4944237;29;20043;-56
2022/10/20 07:08:30;;;;;;;18.60;13.70;;;6.70;99.90;;;;;;4943823;29;20627;-58
2022/10/20 07:11:08;;;;;;;18.73;13.95;;;6.70;99.90;;;;;;4943735;28;20046;-57
2022/10/20 07:13:35;;;;;;;16.95;13.20;;;6.50;99.90;;;;;;4948061;29;20039;-58
2022/10/20 07:16:02;;;;;;;15.73;12.63;;;6.70;99.90;;;;;;4947781;29;20039;-57
2022/10/20 07:18:29;;;;;;;16.27;12.57;;;6.80;99.90;;;;;;4948461;29;20047;-57
2022/10/20 07:21:01;;;;;;;19.27;13.05;;;6.70;99.90;;;;;;4948261;29;20054;-57
2022/10/20 07:23:28;;;;;;;15.82;12.77;;;7.00;99.90;;;;;;4942940;29;20052;-58
2022/10/20 07:26:05;;;;;;;14.95;12.65;;;7.00;99.90;;;;;;4928367;29;20044;-56
2022/10/20 07:28:32;;;;;;;13.82;12.35;;;6.90;99.90;;;;;;4929631;29;20048;-57
2022/10/20 07:31:06;;;;;;;16.25;12.15;;;7.00;99.90;;;;;;4929493;29;20443;-58
2022/10/20 07:33:33;;;;;;;14.45;12.38;;;7.10;99.90;;;;;;4929509;29;20052;-59
2022/10/20 07:35:59;;;;;;;15.32;11.65;;;7.10;99.90;;;;;;4912318;29;20257;-56
2022/10/20 07:38:24;;;;;;;14.50;11.32;;;7.00;99.90;;;;;;4927942;29;20035;-57
2022/10/20 07:40:50;;;;;;;15.98;11.95;;;7.20;99.90;;;;;;4928899;29;20455;-57
2022/10/20 07:43:16;;;;;;;16.95;11.63;;;7.10;99.90;;;;;;4926506;29;20454;-58
2022/10/20 07:45:41;;;;;;;13.30;10.93;;;7.20;99.90;;;;;;4929051;29;20047;-58
2022/10/20 07:48:08;;;;;;;12.80;11.30;;;7.20;99.90;;;;;;4927976;29;20067;-57
2022/10/20 07:50:35;;;;;;;13.80;11.77;;;7.30;99.90;;;;;;4929104;29;20052;-57
2022/10/20 07:53:01;;;;;;;15.07;10.95;;;7.40;99.90;;;;;;4929218;29;20052;-57
2022/10/20 07:55:27;;;;;;;15.68;10.52;;;7.60;99.90;;;;;;4927712;29;20899;-58
2022/10/20 07:57:53;;;;;;;14.18;11.10;;;7.30;99.90;;;;;;4911073;29;20055;-59
2022/10/20 08:00:18;;;;;;;13.20;11.00;;;7.40;99.90;;;;;;4928175;29;20055;-57
2022/10/20 08:02:45;;;;;;;16.35;11.20;;;7.50;99.90;;;;;;4911372;29;20158;-56
2022/10/20 08:05:12;;;;;;;12.90;9.90;;;7.40;99.90;;;;;;4926932;29;20048;-57
2022/10/20 08:07:37;;;;;;;13.43;11.98;;;7.30;99.90;;;;;;4928865;29;20039;-57
2022/10/20 08:10:04;;;;;;;12.80;10.32;;;7.50;99.90;;;;;;4928571;29;20063;-57
2022/10/20 08:12:30;;;;;;;12.48;10.40;;;7.50;99.90;;;;;;4927140;29;20092;-57
2022/10/20 08:14:55;;;;;;;12.88;10.85;;;7.50;99.90;;;;;;4928658;29;20086;-57
2022/10/20 08:17:21;;;;;;;12.45;11.15;;;7.50;99.90;;;;;;4910861;29;20058;-57
2022/10/20 08:19:47;;;;;;;15.15;11.07;;;7.60;99.90;;;;;;4928629;29;20435;-56
2022/10/20 08:22:13;;;;;;;14.10;11.07;;;7.70;99.90;;;;;;4930013;29;20565;-57
2022/10/20 08:24:39;;;;;;;16.52;10.73;;;7.60;99.90;;;;;;4944316;28;20058;-57
2022/10/20 08:27:04;;;;;;;11.10;9.90;;;7.70;99.90;;;;;;4929253;29;20055;-58
2022/10/20 08:29:30;;;;;;;13.07;10.80;;;7.80;99.90;;;;;;4946978;29;20047;-58
2022/10/20 08:31:56;;;;;;;13.90;10.75;;;7.80;99.90;;;;;;4946737;29;20039;-58
2022/10/20 08:34:21;;;;;;;14.43;10.55;;;7.90;99.90;;;;;;4946233;29;20078;-58
2022/10/20 08:36:47;;;;;;;14.88;10.27;;;7.90;99.90;;;;;;4947260;29;20378;-57
2022/10/20 08:39:12;;;;;;;11.40;9.77;;;8.10;99.90;;;;;;4946016;29;20118;-58
2022/10/20 08:41:42;;;;;;;12.60;9.75;;;8.10;99.90;;;;;;4946287;29;20047;-57
2022/10/20 08:44:12;;;;;;;12.40;9.88;;;8.30;99.90;;;;;;4946187;29;20106;-57
2022/10/20 08:46:39;;;;;;;10.75;9.60;;;8.30;99.90;;;;;;4946370;29;20051;-57
2022/10/20 08:49:12;;;;;;;14.32;9.80;;;8.40;99.90;;;;;;4945352;29;20135;-57
2022/10/20 08:51:38;;;;;;;12.60;9.40;;;8.50;99.90;;;;;;4945686;29;20047;-57
2022/10/20 08:54:10;;;;;;;11.25;8.93;;;8.50;99.90;;;;;;4945590;29;20137;-56
2022/10/20 08:56:35;;;;;;;14.63;9.95;;;8.60;99.90;;;;;;4944505;29;20138;-58
2022/10/20 08:59:04;;;;;;;13.07;9.38;;;8.60;99.90;;;;;;4945531;29;20162;-58
2022/10/20 09:01:34;;;;;;;10.85;7.22;;;8.70;99.90;;;;;;4945323;29;20051;-57
2022/10/20 09:04:14;;;;;;;10.70;8.75;;;8.60;99.90;;;;;;4945185;29;20151;-56
2022/10/20 09:06:42;;;;;;;12.88;9.27;;;8.90;99.90;;;;;;4945327;29;20055;-58
2022/10/20 09:09:16;;;;;;;10.50;8.90;;;9.20;99.90;;;;;;4945156;29;20054;-56
2022/10/20 09:11:43;;;;;;;12.20;8.95;;;9.20;99.90;;;;;;4944527;29;20514;-59
2022/10/20 09:14:11;;;;;;;13.43;8.13;;;9.40;99.90;;;;;;4945842;29;20051;-57
2022/10/20 09:16:40;;;;;;;11.48;8.35;;;9.80;99.90;;;;;;4945516;29;20051;-57
2022/10/20 09:19:17;;;;;;;11.48;8.57;;;9.90;99.90;;;;;;4945910;29;20050;-58
2022/10/20 09:21:46;;;;;;;8.35;7.53;;;10.30;99.90;;;;;;4944593;29;20157;-58
2022/10/20 09:24:12;;;;;;;9.18;7.95;;;10.30;99.90;;;;;;4945736;29;20098;-57
2022/10/20 09:26:42;;;;;;;11.40;8.30;;;10.20;99.90;;;;;;4945378;29;20454;-58
2022/10/20 09:29:14;;;;;;;9.60;7.80;;;10.20;99.90;;;;;;4945530;29;20425;-57
2022/10/20 09:31:43;;;;;;;8.45;7.22;;;10.40;99.90;;;;;;4945456;29;20061;-58
2022/10/20 09:34:22;;;;;;;9.52;7.68;;;10.60;99.90;;;;;;4945138;28;20059;-58
2022/10/20 09:36:49;;;;;;;10.13;7.53;;;11.10;99.90;;;;;;4945924;29;20047;-58
2022/10/20 09:39:22;;;;;;;8.45;7.47;;;11.10;99.90;;;;;;4945231;29;20454;-57
2022/10/20 09:41:49;;;;;;;9.40;7.22;;;11.20;99.90;;;;;;4928373;29;20488;-58
2022/10/20 09:44:22;;;;;;;8.68;7.43;;;11.40;99.90;;;;;;4945827;29;20066;-58
2022/10/20 09:46:51;;;;;;;9.05;7.15;;;11.60;99.90;;;;;;4944454;29;20051;-57
2022/10/20 09:49:43;;;;;;;11.45;7.07;;;11.80;99.90;;;;;;4944951;29;20465;-59
2022/10/20 09:52:22;;;;;;;9.60;7.72;;;11.80;99.90;;;;;;4909662;29;20051;-58
2022/10/20 09:54:50;;;;;;;9.00;7.35;;;12.20;99.90;;;;;;4944644;29;20054;-58
2022/10/20 09:57:18;;;;;;;9.82;6.88;;;12.10;99.90;;;;;;4944654;29;20082;-58
2022/10/20 09:59:47;;;;;;;9.50;6.47;;;12.00;99.90;;;;;;4944214;29;20097;-58
2022/10/20 10:02:15;;;;;;;10.70;7.07;;;11.90;99.90;;;;;;4944409;29;20051;-57
2022/10/20 10:04:47;;;;;;;10.15;7.43;;;11.70;99.90;;;;;;4944556;29;20058;-59
2022/10/20 10:07:25;;;;;;;11.70;7.30;;;11.60;99.90;;;;;;4940442;29;20055;-58
2022/10/20 10:10:00;;;;;;;10.00;7.03;;;11.50;99.90;;;;;;4945007;29;20079;-58
2022/10/20 10:12:28;;;;;;;11.77;7.38;;;11.40;99.90;;;;;;4927852;29;20062;-58
2022/10/20 10:15:04;;;;;;;13.38;7.43;;;11.40;99.90;;;;;;4944977;29;20043;-58
2022/10/20 10:17:41;;;;;;;8.93;6.90;;;11.30;99.90;;;;;;4944989;29;20043;-58
2022/10/20 10:20:12;;;;;;;8.43;7.53;;;11.10;99.90;;;;;;4944336;29;20119;-58
2022/10/20 10:22:39;;;;;;;9.27;6.93;;;11.30;99.90;;;;;;4945118;29;20062;-58
2022/10/20 10:25:12;;;;;;;9.48;7.22;;;11.20;99.90;;;;;;4943938;29;20098;-57
2022/10/20 10:27:38;;;;;;;11.77;7.45;;;11.20;99.90;;;;;;4944895;29;20131;-57
2022/10/20 10:30:30;;;;;;;9.20;6.80;;;11.30;99.90;;;;;;4944449;29;20138;-58
2022/10/20 10:32:56;;;;;;;9.68;7.25;;;11.40;99.90;;;;;;4943358;29;20082;-57
2022/10/20 10:35:29;;;;;;;7.70;6.70;;;11.50;99.90;;;;;;4943934;29;20078;-61
2022/10/20 10:37:57;;;;;;;10.95;7.45;;;11.80;99.90;;;;;;4944073;29;20492;-58
2022/10/20 10:40:44;;;;;;;8.07;7.10;;;11.70;99.90;;;;;;4942562;29;20074;-58
2022/10/20 10:43:12;;;;;;;8.95;7.25;;;11.60;99.90;;;;;;4943941;29;20129;-56
2022/10/20 10:45:50;;;;;;;13.80;8.02;;;11.50;99.90;;;;;;4943790;29;20050;-58
2022/10/20 10:48:52;;;;;;;8.18;6.88;;;11.50;99.90;;;;;;4944567;29;20426;-57
2022/10/20 10:51:46;;;;;;;9.48;7.70;;;11.40;99.90;;;;;;4943920;29;20056;-58
2022/10/20 10:54:20;;;;;;;8.35;7.20;;;11.40;99.90;;;;;;4943519;29;20051;-58
2022/10/20 10:56:48;;;;;;;;;;;11.40;99.90;;;;;;4944228;29;20051;-58
2022/10/20 10:59:39;;;;;;;8.80;7.32;;;11.60;99.90;;;;;;4944050;29;19926;-57
2022/10/20 11:02:14;;;;;;;11.60;8.02;;;11.60;99.90;;;;;;4943965;29;20125;-57
2022/10/20 11:04:50;;;;;;;10.43;8.48;;;11.60;99.90;;;;;;4943619;29;20051;-59
2022/10/20 11:07:31;;;;;;;10.65;7.78;;;11.70;99.90;;;;;;4940263;29;20044;-57
2022/10/20 11:10:21;;;;;;;9.05;7.53;;;11.90;99.90;;;;;;4943976;29;20075;-56
2022/10/20 11:13:20;;;;;;;9.65;7.70;;;12.10;99.90;;;;;;4943855;29;20051;-57
2022/10/20 11:16:10;;;;;;;7.47;6.68;;;12.30;99.90;;;;;;4943937;29;20557;-57
2022/10/20 11:18:57;;;;;;;10.20;8.23;;;12.40;99.90;;;;;;4944353;29;20054;-57
2022/10/20 11:21:38;;;;;;;9.70;8.40;;;12.40;99.90;;;;;;4944209;29;20388;-57
2022/10/20 11:24:32;;;;;;;9.48;7.60;;;12.40;99.90;;;;;;4943906;29;20061;-58
2022/10/20 11:27:09;;;;;;;9.48;7.93;;;12.40;99.90;;;;;;4944087;29;20063;-57
2022/10/20 11:29:43;;;;;;;10.60;7.82;;;12.40;99.90;;;;;;4943034;29;20114;-58
2022/10/20 11:32:18;;;;;;;8.88;7.25;;;12.40;99.90;;;;;;4943879;29;20513;-58
2022/10/20 11:35:05;;;;;;;7.30;5.88;;;12.60;99.90;;;;;;4943547;29;20047;-57
2022/10/20 11:37:40;;;;;;;10.07;7.30;;;12.30;99.90;;;;;;4944577;29;20051;-58
2022/10/20 11:40:28;;;;;;;11.07;7.90;;;12.50;99.90;;;;;;4943529;29;20083;-57
2022/10/20 11:43:03;;;;;;;9.55;8.13;;;12.60;99.90;;;;;;4944316;29;20055;-58
2022/10/20 11:45:50;;;;;;;10.60;7.82;;;12.60;99.90;;;;;;4944799;29;20043;-58
2022/10/20 11:48:37;;;;;;;13.23;7.95;;;12.60;99.90;;;;;;4943682;29;20059;-58
2022/10/20 11:51:09;;;;;;;8.90;7.90;;;12.70;99.90;;;;;;4943208;29;20090;-58
2022/10/20 11:53:38;;;;;;;10.45;7.90;;;12.50;99.90;;;;;;4944299;29;20054;-57
2022/10/20 11:56:43;;;;;;;9.85;7.47;;;12.60;99.90;;;;;;4943178;29;20091;-57
2022/10/20 11:59:30;;;;;;;12.40;8.52;;;12.60;99.90;;;;;;4947110;28;20118;-58
2022/10/20 12:02:07;;;;;;;11.00;8.38;;;12.60;99.90;;;;;;4947590;29;20048;-60
2022/10/20 12:04:38;;;;;;;11.32;7.43;;;12.60;99.90;;;;;;4947232;29;20793;-58
2022/10/20 12:07:28;;;;;;;10.23;8.77;;;12.60;99.90;;;;;;4947029;29;20058;-58
2022/10/20 12:10:00;;;;;;;12.07;8.93;;;12.50;99.90;;;;;;4946815;29;20047;-59
2022/10/20 12:12:52;;;;;;;13.55;9.30;;;12.60;99.90;;;;;;4946622;29;20059;-58
2022/10/20 12:15:23;;;;;;;11.98;8.70;;;12.60;99.90;;;;;;4929552;29;20039;-58
2022/10/20 12:17:51;;;;;;;12.30;8.45;;;12.50;99.90;;;;;;4946428;29;20051;-57
2022/10/20 12:20:19;;;;;;;14.43;9.18;;;12.50;99.90;;;;;;4946699;29;20451;-58
2022/10/20 12:22:49;;;;;;;11.98;8.65;;;12.50;99.90;;;;;;4947157;29;20063;-58
2022/10/20 12:25:35;;;;;;;11.00;8.73;;;12.60;99.90;;;;;;4944971;29;20051;-58
2022/10/20 12:28:19;;;;;;;10.80;9.18;;;12.50;99.90;;;;;;4947014;29;20486;-57
2022/10/20 12:31:05;;;;;;;9.07;7.33;;;12.60;99.90;;;;;;4946798;29;20047;-57
2022/10/20 12:33:47;;;;;;;10.27;9.27;;;12.40;99.90;;;;;;4929792;29;20046;-58
2022/10/20 12:36:16;;;;;;;14.20;9.77;;;12.50;99.90;;;;;;4945735;29;20054;-57
2022/10/20 12:38:43;;;;;;;14.07;9.48;;;12.50;99.90;;;;;;4946595;29;20591;-58
2022/10/20 12:41:23;;;;;;;13.02;9.70;;;12.40;99.90;;;;;;4945752;29;20078;-57
2022/10/20 12:43:51;;;;;;;11.82;9.13;;;12.50;99.90;;;;;;4947152;29;20130;-57
2022/10/20 12:46:22;;;;;;;11.43;9.10;;;12.40;99.90;;;;;;4946133;29;20410;-58
2022/10/20 12:48:55;;;;;;;10.63;9.32;;;12.40;99.90;;;;;;4946266;29;20051;-58
2022/10/20 12:51:37;;;;;;;11.23;9.38;;;12.40;99.90;;;;;;4946340;29;20047;-57
2022/10/20 12:54:20;;;;;;;13.32;9.32;;;12.50;99.90;;;;;;4946230;29;20122;-57
2022/10/20 12:56:46;;;;;;;10.98;9.80;;;12.50;99.90;;;;;;4945192;29;20098;-57
2022/10/20 12:59:27;;;;;;;12.02;9.60;;;12.40;99.90;;;;;;4946045;29;20039;-57
2022/10/20 13:02:08;;;;;;;12.98;9.80;;;12.40;99.90;;;;;;4946363;29;20082;-58